createdAt,value
2017-10-30T00:00:38.395Z,7.40
2017-10-30T00:03:04.723Z,7.50
2017-10-30T00:05:31.714Z,7.50
2017-10-30T00:07:57.990Z,7.40
2017-10-30T00:10:24.266Z,7.50
2017-10-30T00:12:51.336Z,7.40
2017-10-30T00:15:17.603Z,7.40
2017-10-30T00:17:43.914Z,7.40
2017-10-30T00:20:10.922Z,7.40
2017-10-30T00:22:37.255Z,7.40
2017-10-30T00:25:03.554Z,7.40
2017-10-30T00:27:30.563Z,7.40
2017-10-30T00:29:56.851Z,7.40
2017-10-30T00:32:23.183Z,7.40
2017-10-30T00:34:50.183Z,7.30
2017-10-30T00:37:16.520Z,7.30
2017-10-30T00:39:42.813Z,7.30
2017-10-30T00:42:09.073Z,7.30
2017-10-30T00:44:35.445Z,7.30
2017-10-30T00:47:01.755Z,7.30
2017-10-30T00:49:28.059Z,7.20
2017-10-30T00:51:55.071Z,7.20
2017-10-30T00:54:21.360Z,7.20
2017-10-30T00:56:47.651Z,7.20
2017-10-30T00:59:15.007Z,7.20
2017-10-30T01:01:41.316Z,7.20
2017-10-30T01:04:07.573Z,7.20
2017-10-30T01:06:33.846Z,7.20
2017-10-30T01:09:00.167Z,7.20
2017-10-30T01:11:26.422Z,7.20
2017-10-30T01:13:52.704Z,7.20
2017-10-30T01:16:18.974Z,7.10
2017-10-30T01:18:45.293Z,7.10
2017-10-30T01:21:11.586Z,7.20
2017-10-30T01:23:38.618Z,7.20
2017-10-30T01:26:04.920Z,7.10
2017-10-30T01:28:31.955Z,7.10
2017-10-30T01:30:58.271Z,7.10
2017-10-30T01:33:24.571Z,7.10
2017-10-30T01:35:51.631Z,7.00
2017-10-30T01:38:17.910Z,7.00
2017-10-30T01:40:44.216Z,7.00
2017-10-30T01:43:10.539Z,7.00
2017-10-30T01:45:37.552Z,7.00
2017-10-30T01:48:03.843Z,7.00
2017-10-30T01:50:30.907Z,7.10
2017-10-30T01:52:57.190Z,7.00
2017-10-30T01:55:24.267Z,7.00
2017-10-30T01:57:50.591Z,7.00
2017-10-30T02:00:18.370Z,7.00
2017-10-30T02:02:44.723Z,7.00
2017-10-30T02:05:12.042Z,7.00
2017-10-30T02:07:40.155Z,7.00
2017-10-30T02:10:06.439Z,6.90
2017-10-30T02:12:32.819Z,6.90
2017-10-30T02:14:59.138Z,6.90
2017-10-30T02:17:25.458Z,6.90
2017-10-30T02:19:51.799Z,6.90
2017-10-30T02:22:18.113Z,6.80
2017-10-30T02:24:44.487Z,6.80
2017-10-30T02:27:11.575Z,6.80
2017-10-30T02:29:39.018Z,6.80
2017-10-30T02:32:05.314Z,6.80
2017-10-30T02:34:31.639Z,6.70
2017-10-30T02:36:57.963Z,6.80
2017-10-30T02:39:24.261Z,6.80
2017-10-30T02:41:50.603Z,6.80
2017-10-30T02:44:16.910Z,6.70
2017-10-30T02:46:43.234Z,6.70
2017-10-30T02:49:09.548Z,6.70
2017-10-30T02:51:35.863Z,6.70
2017-10-30T02:54:02.164Z,6.70
2017-10-30T02:56:29.246Z,6.70
2017-10-30T02:58:55.584Z,6.60
2017-10-30T03:01:21.890Z,6.60
2017-10-30T03:03:48.219Z,6.60
2017-10-30T03:06:14.545Z,6.60
2017-10-30T03:08:40.858Z,6.60
2017-10-30T03:11:07.192Z,6.60
2017-10-30T03:13:34.275Z,6.60
2017-10-30T03:16:01.315Z,6.60
2017-10-30T03:18:27.678Z,6.60
2017-10-30T03:20:54.714Z,6.60
2017-10-30T03:23:22.103Z,6.60
2017-10-30T03:25:48.413Z,6.70
2017-10-30T03:28:15.467Z,6.60
2017-10-30T03:30:41.781Z,6.60
2017-10-30T03:33:08.095Z,6.60
2017-10-30T03:35:34.367Z,6.60
2017-10-30T03:38:00.683Z,6.50
2017-10-30T03:40:27.203Z,6.50
2017-10-30T03:42:53.518Z,6.50
2017-10-30T03:45:19.826Z,6.40
2017-10-30T03:47:47.162Z,6.40
2017-10-30T03:50:13.445Z,6.40
2017-10-30T03:52:39.754Z,6.40
2017-10-30T03:55:06.815Z,6.30
2017-10-30T03:57:33.846Z,6.20
2017-10-30T04:00:00.198Z,6.30
2017-10-30T04:02:26.479Z,6.20
2017-10-30T04:04:52.786Z,6.20
2017-10-30T04:07:19.086Z,6.00
2017-10-30T04:09:45.386Z,6.00
2017-10-30T04:12:11.692Z,6.00
2017-10-30T04:14:38.766Z,6.10
2017-10-30T04:17:05.047Z,6.10
2017-10-30T04:19:32.078Z,6.10
2017-10-30T04:21:59.136Z,6.10
2017-10-30T04:24:25.366Z,6.10
2017-10-30T04:26:51.671Z,6.00
2017-10-30T04:29:18.720Z,6.00
2017-10-30T04:31:44.990Z,6.00
2017-10-30T04:34:11.249Z,6.00
2017-10-30T04:36:38.309Z,6.10
2017-10-30T04:39:04.574Z,6.10
2017-10-30T04:41:30.931Z,6.10
2017-10-30T04:43:58.320Z,6.10
2017-10-30T04:46:25.365Z,6.20
2017-10-30T04:48:51.635Z,6.10
2017-10-30T04:51:18.686Z,6.20
2017-10-30T04:53:44.971Z,6.20
2017-10-30T04:56:11.970Z,6.20
2017-10-30T04:58:38.283Z,6.20
2017-10-30T05:01:05.315Z,6.20
2017-10-30T05:03:31.586Z,6.20
2017-10-30T05:05:57.873Z,6.20
2017-10-30T05:08:24.921Z,6.20
2017-10-30T05:10:51.191Z,6.20
2017-10-30T05:13:18.254Z,6.20
2017-10-30T05:15:44.522Z,6.20
2017-10-30T05:18:11.551Z,6.10
2017-10-30T05:20:37.870Z,6.10
2017-10-30T05:23:04.150Z,6.20
2017-10-30T05:25:30.457Z,6.10
2017-10-30T05:27:56.731Z,6.20
2017-10-30T05:30:23.023Z,6.20
2017-10-30T05:32:49.298Z,6.40
2017-10-30T05:35:16.343Z,6.50
2017-10-30T05:37:42.630Z,6.50
2017-10-30T05:40:09.239Z,6.50
2017-10-30T05:42:35.568Z,6.50
2017-10-30T05:45:02.630Z,6.50
2017-10-30T05:47:29.651Z,6.50
2017-10-30T05:49:55.939Z,6.50
2017-10-30T05:52:22.211Z,6.50
2017-10-30T05:54:49.203Z,6.50
2017-10-30T05:57:15.498Z,6.50
2017-10-30T05:59:41.779Z,6.50
2017-10-30T06:02:08.026Z,6.50
2017-10-30T06:04:34.342Z,6.50
2017-10-30T06:07:00.635Z,6.50
2017-10-30T06:09:26.932Z,6.60
2017-10-30T06:11:53.238Z,6.50
2017-10-30T06:14:19.534Z,6.50
2017-10-30T06:16:45.802Z,6.60
2017-10-30T06:19:12.098Z,6.70
2017-10-30T06:21:38.399Z,6.70
2017-10-30T06:24:04.670Z,6.70
2017-10-30T06:26:30.978Z,6.70
2017-10-30T06:28:57.234Z,6.70
2017-10-30T06:31:23.498Z,6.70
2017-10-30T06:33:49.786Z,6.70
2017-10-30T06:36:16.054Z,6.70
2017-10-30T06:38:42.343Z,6.70
2017-10-30T06:41:08.621Z,6.70
2017-10-30T06:43:34.886Z,6.70
2017-10-30T06:46:01.918Z,6.70
2017-10-30T06:48:28.219Z,6.70
2017-10-30T06:50:54.490Z,6.70
2017-10-30T06:53:20.796Z,6.80
2017-10-30T06:55:48.571Z,6.80
2017-10-30T06:58:14.839Z,6.80
2017-10-30T07:00:41.120Z,6.90
2017-10-30T07:03:07.403Z,6.90
2017-10-30T07:05:34.439Z,7.00
2017-10-30T07:08:00.723Z,7.00
2017-10-30T07:10:27.030Z,7.10
2017-10-30T07:12:53.303Z,7.10
2017-10-30T07:15:19.610Z,7.20
2017-10-30T07:17:45.933Z,7.10
2017-10-30T07:20:12.251Z,7.20
2017-10-30T07:22:38.538Z,7.20
2017-10-30T07:25:04.884Z,7.20
2017-10-30T07:27:31.226Z,7.30
2017-10-30T07:29:57.507Z,7.50
2017-10-30T07:32:23.806Z,7.70
2017-10-30T07:34:50.088Z,7.90
2017-10-30T07:37:16.374Z,8.00
2017-10-30T07:39:42.642Z,7.90
2017-10-30T07:42:10.477Z,8.00
2017-10-30T07:44:37.979Z,8.00
2017-10-30T07:47:05.060Z,8.10
2017-10-30T07:49:32.113Z,8.00
2017-10-30T07:51:58.430Z,8.00
2017-10-30T07:54:24.762Z,8.00
2017-10-30T07:56:51.119Z,8.00
2017-10-30T07:59:17.437Z,8.10
2017-10-30T08:01:43.727Z,8.00
2017-10-30T08:04:10.818Z,8.10
2017-10-30T08:06:37.138Z,8.00
2017-10-30T08:09:03.482Z,8.10
2017-10-30T08:11:29.787Z,8.10
2017-10-30T08:13:56.095Z,8.10
2017-10-30T08:16:22.446Z,8.00
2017-10-30T08:18:48.727Z,7.90
2017-10-30T08:21:15.786Z,8.00
2017-10-30T08:23:42.114Z,8.00
2017-10-30T08:26:08.451Z,7.90
2017-10-30T08:28:34.803Z,8.00
2017-10-30T08:31:01.115Z,8.10
2017-10-30T08:33:27.411Z,8.20
2017-10-30T08:35:53.723Z,8.40
2017-10-30T08:38:20.049Z,8.60
2017-10-30T08:40:47.854Z,8.70
2017-10-30T08:43:14.910Z,8.60
2017-10-30T08:45:42.003Z,8.40
2017-10-30T08:48:09.071Z,8.40
2017-10-30T08:50:36.138Z,8.30
2017-10-30T08:53:02.488Z,8.30
2017-10-30T08:55:29.530Z,8.60
2017-10-30T08:57:55.867Z,8.60
2017-10-30T09:00:22.207Z,8.60
2017-10-30T09:02:48.531Z,8.70
2017-10-30T09:05:15.594Z,8.60
2017-10-30T09:07:41.914Z,8.60
2017-10-30T09:10:08.219Z,8.50
2017-10-30T09:12:35.270Z,9.20
2017-10-30T09:15:01.610Z,9.20
2017-10-30T09:17:27.907Z,8.90
2017-10-30T09:19:54.199Z,8.90
2017-10-30T09:22:20.554Z,8.90
2017-10-30T09:24:46.862Z,8.80
2017-10-30T09:27:13.890Z,8.90
2017-10-30T09:29:40.222Z,8.90
2017-10-30T09:32:06.551Z,8.80
2017-10-30T09:34:32.879Z,8.70
2017-10-30T09:36:59.246Z,8.70
2017-10-30T09:39:25.599Z,8.80
2017-10-30T09:41:52.654Z,8.70
2017-10-30T09:44:19.718Z,8.80
2017-10-30T09:46:46.078Z,8.80
2017-10-30T09:49:12.398Z,9.00
2017-10-30T09:51:38.738Z,9.10
2017-10-30T09:54:05.038Z,9.30
2017-10-30T09:56:31.371Z,9.30
2017-10-30T09:58:57.746Z,9.20
2017-10-30T10:01:24.066Z,9.10
2017-10-30T10:03:50.382Z,9.10
2017-10-30T10:06:16.739Z,9.10
2017-10-30T10:08:43.799Z,9.10
2017-10-30T10:11:10.114Z,9.10
2017-10-30T10:13:36.446Z,9.10
2017-10-30T10:16:02.779Z,9.10
2017-10-30T10:18:29.114Z,9.10
2017-10-30T10:20:55.436Z,9.10
2017-10-30T10:23:21.770Z,9.30
2017-10-30T10:25:48.161Z,9.30
2017-10-30T10:28:14.540Z,9.30
2017-10-30T10:30:41.595Z,9.50
2017-10-30T10:33:07.931Z,9.50
2017-10-30T10:35:34.272Z,9.70
2017-10-30T10:38:00.591Z,9.70
2017-10-30T10:40:26.898Z,9.70
2017-10-30T10:42:53.247Z,9.70
2017-10-30T10:45:19.655Z,9.70
2017-10-30T10:47:46.703Z,9.60
2017-10-30T10:50:13.799Z,9.50
2017-10-30T10:52:40.131Z,9.50
2017-10-30T10:55:06.411Z,9.50
2017-10-30T10:57:32.751Z,9.60
2017-10-30T10:59:59.786Z,9.70
2017-10-30T11:02:26.075Z,9.70
2017-10-30T11:04:52.386Z,9.70
2017-10-30T11:07:19.634Z,9.70
2017-10-30T11:09:45.955Z,9.80
2017-10-30T11:12:12.991Z,9.70
2017-10-30T11:14:39.294Z,9.70
2017-10-30T11:17:06.362Z,9.90
2017-10-30T11:19:33.859Z,9.90
2017-10-30T11:22:00.166Z,10.00
2017-10-30T11:24:26.449Z,10.20
2017-10-30T11:26:52.755Z,10.30
2017-10-30T11:29:19.039Z,10.40
2017-10-30T11:31:46.107Z,10.30
2017-10-30T11:34:13.159Z,10.50
2017-10-30T11:36:39.450Z,10.40
2017-10-30T11:39:05.735Z,10.50
2017-10-30T11:41:33.146Z,10.50
2017-10-30T11:43:59.398Z,10.60
2017-10-30T11:46:25.688Z,10.60
2017-10-30T11:48:52.029Z,10.40
2017-10-30T11:51:18.315Z,10.40
2017-10-30T11:53:45.340Z,10.70
2017-10-30T11:56:11.652Z,10.60
2017-10-30T11:58:37.980Z,10.60
2017-10-30T12:01:04.295Z,10.50
2017-10-30T12:03:30.587Z,10.50
2017-10-30T12:05:57.663Z,10.50
2017-10-30T12:08:24.728Z,10.50
2017-10-30T12:10:51.795Z,10.60
2017-10-30T12:13:18.085Z,10.60
2017-10-30T12:15:44.355Z,10.50
2017-10-30T12:18:10.671Z,10.50
2017-10-30T12:20:37.674Z,10.40
2017-10-30T12:23:05.018Z,10.40
2017-10-30T12:25:31.330Z,10.40
2017-10-30T12:27:57.611Z,10.40
2017-10-30T12:30:23.899Z,10.50
2017-10-30T12:32:50.191Z,10.40
2017-10-30T12:35:16.491Z,10.40
2017-10-30T12:37:43.498Z,10.40
2017-10-30T12:40:09.788Z,10.40
2017-10-30T12:42:36.066Z,10.50
2017-10-30T12:45:02.386Z,10.60
2017-10-30T12:47:28.723Z,10.50
2017-10-30T12:49:54.970Z,10.50
2017-10-30T12:52:21.282Z,10.50
2017-10-30T12:54:48.315Z,10.50
2017-10-30T12:57:14.599Z,10.50
2017-10-30T12:59:40.913Z,10.40
2017-10-30T13:02:07.231Z,10.40
2017-10-30T13:04:34.294Z,10.60
2017-10-30T13:07:01.366Z,10.60
2017-10-30T13:09:27.703Z,10.60
2017-10-30T13:11:53.975Z,10.60
2017-10-30T13:14:20.275Z,10.60
2017-10-30T13:16:46.595Z,10.70
2017-10-30T13:19:13.611Z,10.70
2017-10-30T13:21:39.947Z,10.70
2017-10-30T13:24:06.273Z,10.60
2017-10-30T13:26:32.582Z,10.70
2017-10-30T13:28:58.843Z,10.70
2017-10-30T13:31:25.891Z,10.60
2017-10-30T13:33:52.196Z,10.60
2017-10-30T13:36:20.310Z,10.60
2017-10-30T13:38:46.617Z,10.50
2017-10-30T13:41:12.891Z,10.60
2017-10-30T13:43:39.179Z,10.60
2017-10-30T13:46:05.495Z,10.60
2017-10-30T13:48:31.750Z,10.50
2017-10-30T13:50:58.022Z,10.40
2017-10-30T13:53:24.302Z,10.40
2017-10-30T13:55:50.566Z,10.40
2017-10-30T13:58:16.854Z,10.50
2017-10-30T14:00:43.878Z,10.50
2017-10-30T14:03:10.155Z,10.50
2017-10-30T14:05:36.451Z,10.50
2017-10-30T14:08:02.802Z,10.40
2017-10-30T14:10:29.082Z,10.40
2017-10-30T14:12:55.389Z,10.40
2017-10-30T14:15:22.422Z,10.40
2017-10-30T14:17:48.702Z,10.40
2017-10-30T14:20:14.974Z,10.30
2017-10-30T14:22:42.019Z,10.30
2017-10-30T14:25:08.334Z,10.30
2017-10-30T14:27:34.663Z,10.20
2017-10-30T14:30:00.987Z,10.20
2017-10-30T14:32:27.313Z,10.10
2017-10-30T14:34:53.589Z,10.10
2017-10-30T14:37:19.923Z,10.20
2017-10-30T14:39:46.287Z,10.10
2017-10-30T14:42:12.598Z,10.10
2017-10-30T14:44:38.954Z,10.10
2017-10-30T14:47:06.003Z,10.10
2017-10-30T14:49:32.330Z,10.10
2017-10-30T14:51:58.651Z,10.10
2017-10-30T14:54:24.955Z,10.10
2017-10-30T14:56:51.297Z,10.10
2017-10-30T14:59:17.637Z,10.00
2017-10-30T15:01:43.946Z,10.10
2017-10-30T15:04:10.254Z,10.00
2017-10-30T15:06:36.610Z,10.00
2017-10-30T15:09:02.906Z,10.00
2017-10-30T15:11:29.946Z,9.90
2017-10-30T15:13:56.312Z,9.90
2017-10-30T15:16:22.610Z,9.90
2017-10-30T15:18:48.955Z,9.90
2017-10-30T15:21:15.334Z,9.90
2017-10-30T15:23:41.655Z,9.90
2017-10-30T15:26:07.990Z,9.80
2017-10-30T15:28:35.039Z,9.80
2017-10-30T15:31:01.348Z,9.80
2017-10-30T15:33:27.697Z,9.80
2017-10-30T15:35:54.059Z,9.80
2017-10-30T15:38:20.379Z,9.80
2017-10-30T15:40:46.718Z,9.80
2017-10-30T15:43:13.047Z,9.80
2017-10-30T15:45:39.363Z,9.80
2017-10-30T15:48:05.675Z,9.70
2017-10-30T15:50:32.026Z,9.70
2017-10-30T15:52:58.301Z,9.60
2017-10-30T15:55:25.675Z,9.70
2017-10-30T15:57:51.967Z,9.60
2017-10-30T16:00:18.270Z,9.60
2017-10-30T16:02:44.573Z,9.60
2017-10-30T16:05:10.864Z,9.50
2017-10-30T16:07:37.167Z,9.50
2017-10-30T16:10:03.466Z,9.50
2017-10-30T16:12:29.791Z,9.50
2017-10-30T16:14:56.786Z,9.50
2017-10-30T16:17:23.054Z,9.50
2017-10-30T16:19:49.407Z,9.50
2017-10-30T16:22:15.726Z,9.40
2017-10-30T16:24:42.758Z,9.40
2017-10-30T16:27:09.778Z,9.40
2017-10-30T16:29:36.063Z,9.40
2017-10-30T16:32:02.383Z,9.40
2017-10-30T16:34:28.740Z,9.40
2017-10-30T16:36:55.022Z,9.40
2017-10-30T16:39:21.351Z,9.40
2017-10-30T16:41:47.662Z,9.40
2017-10-30T16:44:13.945Z,9.30
2017-10-30T16:46:41.009Z,9.30
2017-10-30T16:49:07.363Z,9.30
2017-10-30T16:51:33.670Z,9.30
2017-10-30T16:53:59.994Z,9.30
2017-10-30T16:56:26.354Z,9.20
2017-10-30T16:58:52.679Z,9.10
2017-10-30T17:01:19.719Z,9.00
2017-10-30T17:03:46.096Z,9.00
2017-10-30T17:06:12.424Z,8.90
2017-10-30T17:08:38.689Z,8.90
2017-10-30T17:11:05.795Z,8.90
2017-10-30T17:13:32.074Z,8.80
2017-10-30T17:15:58.352Z,8.80
2017-10-30T17:18:24.680Z,8.70
2017-10-30T17:20:50.974Z,8.60
2017-10-30T17:23:17.272Z,8.60
2017-10-30T17:25:43.589Z,8.60
2017-10-30T17:28:10.016Z,8.60
2017-10-30T17:30:36.448Z,8.60
2017-10-30T17:33:03.582Z,8.60
2017-10-30T17:35:29.989Z,8.60
2017-10-30T17:37:56.324Z,8.60
2017-10-30T17:40:22.660Z,8.70
2017-10-30T17:42:49.965Z,8.70
2017-10-30T17:45:16.610Z,8.60
2017-10-30T17:47:42.982Z,8.60
2017-10-30T17:50:09.745Z,8.60
2017-10-30T17:52:37.826Z,8.60
2017-10-30T17:55:06.845Z,8.60
2017-10-30T17:57:34.435Z,8.60
2017-10-30T18:00:01.822Z,8.50
2017-10-30T18:02:29.265Z,8.40
2017-10-30T18:04:56.345Z,8.40
2017-10-30T18:07:23.717Z,8.30
2017-10-30T18:09:52.408Z,8.20
2017-10-30T18:12:20.200Z,8.20
2017-10-30T18:14:47.961Z,8.20
2017-10-30T18:17:15.590Z,8.20
2017-10-30T18:19:44.279Z,8.10
2017-10-30T18:22:17.935Z,8.00
2017-10-30T18:24:46.420Z,7.90
2017-10-30T18:27:13.979Z,7.90
2017-10-30T18:29:41.751Z,7.80
2017-10-30T18:32:09.566Z,7.70
2017-10-30T18:34:37.332Z,7.70
2017-10-30T18:37:05.119Z,7.80
2017-10-30T18:39:32.925Z,7.70
2017-10-30T18:42:00.748Z,7.60
2017-10-30T18:44:28.498Z,7.60
2017-10-30T18:46:56.356Z,7.50
2017-10-30T18:49:24.246Z,7.50
2017-10-30T18:51:52.012Z,7.30
2017-10-30T18:54:19.986Z,7.30
2017-10-30T18:56:47.714Z,7.20
2017-10-30T18:59:15.639Z,7.10
2017-10-30T19:01:43.442Z,7.10
2017-10-30T19:04:11.497Z,7.00
2017-10-30T19:06:39.335Z,7.00
2017-10-30T19:09:07.181Z,6.90
2017-10-30T19:11:35.087Z,6.90
2017-10-30T19:14:03.760Z,6.90
2017-10-30T19:16:33.738Z,6.80
2017-10-30T19:19:01.533Z,6.80
2017-10-30T19:21:29.541Z,6.80
2017-10-30T19:23:58.736Z,6.70
2017-10-30T19:26:27.474Z,6.80
2017-10-30T19:28:56.237Z,6.70
2017-10-30T19:31:25.639Z,6.70
2017-10-30T19:33:54.325Z,6.60
2017-10-30T19:36:23.684Z,6.40
2017-10-30T19:38:52.320Z,6.30
2017-10-30T19:41:20.339Z,6.30
2017-10-30T19:43:48.340Z,6.30
2017-10-30T19:46:16.474Z,6.10
2017-10-30T19:48:44.507Z,6.10
2017-10-30T19:51:12.533Z,6.10
2017-10-30T19:53:41.432Z,6.00
2017-10-30T19:56:10.761Z,5.90
2017-10-30T19:58:39.781Z,5.90
2017-10-30T20:01:09.929Z,5.70
2017-10-30T20:03:38.709Z,5.60
2017-10-30T20:06:13.183Z,5.60
2017-10-30T20:08:47.840Z,5.50
2017-10-30T20:11:22.227Z,5.50
2017-10-30T20:13:51.557Z,5.40
2017-10-30T20:16:21.116Z,5.40
2017-10-30T20:18:50.268Z,5.40
2017-10-30T20:21:19.355Z,5.40
2017-10-30T20:23:48.250Z,5.40
2017-10-30T20:26:16.969Z,5.50
2017-10-30T20:28:46.801Z,5.30
2017-10-30T20:31:15.460Z,5.30
2017-10-30T20:33:44.985Z,5.20
2017-10-30T20:36:13.520Z,5.20
2017-10-30T20:38:42.941Z,5.10
2017-10-30T20:41:11.849Z,5.10
2017-10-30T20:43:41.496Z,4.90
2017-10-30T20:46:11.215Z,4.80
2017-10-30T20:48:40.348Z,4.80
2017-10-30T20:51:09.380Z,4.80
2017-10-30T20:53:38.729Z,4.80
2017-10-30T20:56:07.415Z,4.80
2017-10-30T20:58:36.133Z,4.60
2017-10-30T21:01:05.360Z,4.80
2017-10-30T21:03:34.162Z,4.60
2017-10-30T21:06:02.379Z,4.50
2017-10-30T21:08:31.359Z,4.30
2017-10-30T21:11:00.682Z,4.30
2017-10-30T21:13:30.982Z,4.40
2017-10-30T21:16:00.265Z,4.40
2017-10-30T21:18:29.396Z,4.30
2017-10-30T21:20:58.454Z,4.30
2017-10-30T21:23:27.537Z,4.40
2017-10-30T21:25:56.659Z,4.30
2017-10-30T21:28:25.670Z,4.30
2017-10-30T21:30:58.323Z,4.30
2017-10-30T21:33:27.773Z,4.30
2017-10-30T21:35:56.917Z,4.30
2017-10-30T21:38:26.146Z,4.30
2017-10-30T21:40:55.164Z,4.30
2017-10-30T21:43:24.171Z,4.20
2017-10-30T21:45:52.890Z,4.20
2017-10-30T21:48:21.815Z,4.20
2017-10-30T21:50:50.965Z,4.10
2017-10-30T21:53:19.983Z,4.00
2017-10-30T21:55:49.061Z,4.00
2017-10-30T21:58:18.129Z,4.00
2017-10-30T22:00:47.165Z,3.90
2017-10-30T22:03:17.006Z,3.90
2017-10-30T22:05:46.125Z,3.90
2017-10-30T22:08:14.772Z,3.80
2017-10-30T22:10:44.608Z,3.80
2017-10-30T22:13:13.463Z,3.80
2017-10-30T22:15:42.544Z,3.80
2017-10-30T22:18:11.566Z,3.80
2017-10-30T22:20:42.072Z,3.70
2017-10-30T22:23:11.718Z,3.70
2017-10-30T22:25:39.597Z,3.70
2017-10-30T22:28:08.719Z,3.80
2017-10-30T22:30:37.808Z,3.80
2017-10-30T22:33:06.952Z,3.70
2017-10-30T22:35:36.572Z,3.70
2017-10-30T22:38:05.600Z,3.80
2017-10-30T22:40:33.797Z,3.80
2017-10-30T22:43:00.555Z,3.80
2017-10-30T22:45:27.252Z,3.70
2017-10-30T22:47:55.127Z,3.70
2017-10-30T22:50:21.653Z,3.70
2017-10-30T22:52:48.136Z,3.70
2017-10-30T22:55:14.694Z,3.60
2017-10-30T22:57:41.174Z,3.60
2017-10-30T23:00:07.643Z,3.70
2017-10-30T23:02:34.115Z,3.70
2017-10-30T23:05:00.523Z,3.70
2017-10-30T23:07:26.978Z,3.60
2017-10-30T23:09:53.384Z,3.60
2017-10-30T23:12:19.773Z,3.70
2017-10-30T23:14:46.155Z,3.70
2017-10-30T23:17:12.596Z,3.80
2017-10-30T23:19:39.765Z,3.70
2017-10-30T23:22:06.466Z,3.70
2017-10-30T23:24:32.991Z,3.80
2017-10-30T23:26:59.379Z,3.70
2017-10-30T23:29:25.776Z,3.70
2017-10-30T23:31:52.224Z,3.70
2017-10-30T23:34:18.644Z,3.70
2017-10-30T23:36:45.017Z,3.70
2017-10-30T23:39:12.175Z,3.60
2017-10-30T23:41:38.608Z,3.60
2017-10-30T23:44:05.016Z,3.60
2017-10-30T23:46:31.412Z,3.60
2017-10-30T23:48:57.851Z,3.40
2017-10-30T23:51:24.260Z,3.40
2017-10-30T23:53:50.827Z,3.40
2017-10-30T23:56:18.310Z,3.30
2017-10-30T23:58:45.128Z,3.30
